createdAt,value
2023-05-02T00:02:36.471Z,11.50
2023-05-02T00:07:43.547Z,12.40
2023-05-02T00:12:50.379Z,11.70
2023-05-02T00:17:57.315Z,11.90
2023-05-02T00:23:04.330Z,12.10
2023-05-02T00:28:11.264Z,12.00
2023-05-02T00:33:18.348Z,12.50
2023-05-02T00:38:25.375Z,11.30
2023-05-02T00:43:34.603Z,11.30
2023-05-02T00:48:41.938Z,11.90
2023-05-02T00:53:49.221Z,11.40
2023-05-02T00:58:58.101Z,12.80
2023-05-02T01:04:18.726Z,12.70
2023-05-02T01:09:35.778Z,11.50
2023-05-02T01:14:46.674Z,12.90
2023-05-02T01:19:56.524Z,12.90
2023-05-02T01:25:11.260Z,13.40
2023-05-02T01:30:21.705Z,13.00
2023-05-02T01:35:29.306Z,11.90
2023-05-02T01:40:38.186Z,12.30
2023-05-02T01:45:48.560Z,12.70
2023-05-02T01:50:57.417Z,12.00
2023-05-02T01:56:04.869Z,12.60
2023-05-02T02:01:12.930Z,12.00
2023-05-02T02:06:21.247Z,12.10
2023-05-02T02:11:35.758Z,12.00
2023-05-02T02:16:44.833Z,12.70
2023-05-02T02:21:54.436Z,11.80
2023-05-02T02:27:01.498Z,11.90
2023-05-02T02:32:08.639Z,12.40
2023-05-02T02:37:20.129Z,12.90
2023-05-02T02:42:43.832Z,13.30
2023-05-02T02:47:58.367Z,13.60
2023-05-02T02:53:08.898Z,13.30
2023-05-02T02:58:26.925Z,14.90
2023-05-02T03:03:35.827Z,13.70
2023-05-02T03:08:43.884Z,13.40
2023-05-02T03:13:53.902Z,12.40
2023-05-02T03:19:01.599Z,12.70
2023-05-02T03:24:08.941Z,11.70
2023-05-02T03:29:15.902Z,9.90
2023-05-02T03:34:23.185Z,8.20
2023-05-02T03:39:31.207Z,8.40
2023-05-02T03:44:38.863Z,8.80
2023-05-02T03:49:45.806Z,9.20
2023-05-02T03:54:54.100Z,9.50
2023-05-02T04:00:01.746Z,9.20
2023-05-02T04:05:18.675Z,7.40
2023-05-02T04:10:27.971Z,8.60
2023-05-02T04:15:37.918Z,7.10
2023-05-02T04:20:46.946Z,7.40
2023-05-02T04:25:56.562Z,7.20
2023-05-02T04:31:11.141Z,6.80
2023-05-02T04:36:19.170Z,6.70
2023-05-02T04:41:27.078Z,6.50
2023-05-02T04:46:39.421Z,6.50
2023-05-02T04:51:47.204Z,6.60
2023-05-02T04:56:54.558Z,6.50
2023-05-02T05:02:03.048Z,6.80
2023-05-02T05:07:10.521Z,6.70
2023-05-02T05:12:17.788Z,6.80
2023-05-02T05:17:24.831Z,6.60
2023-05-02T05:22:33.052Z,6.20
2023-05-02T05:27:40.682Z,7.20
2023-05-02T05:32:49.120Z,6.80
2023-05-02T05:37:56.454Z,7.00
2023-05-02T05:43:03.675Z,6.60
2023-05-02T05:48:14.693Z,6.40
2023-05-02T05:53:25.081Z,7.30
2023-05-02T05:58:32.210Z,11.00
2023-05-02T06:03:39.892Z,26.30
2023-05-02T06:08:47.054Z,15.20
2023-05-02T06:13:55.864Z,17.60
2023-05-02T06:19:03.473Z,8.60
2023-05-02T06:24:10.739Z,7.80
2023-05-02T06:29:17.975Z,8.30
2023-05-02T06:34:25.115Z,7.70
2023-05-02T06:39:31.927Z,7.20
2023-05-02T06:44:38.912Z,8.00
2023-05-02T06:49:45.967Z,8.10
2023-05-02T06:54:52.776Z,7.50
2023-05-02T06:59:59.776Z,6.90
2023-05-02T07:05:07.794Z,6.70
2023-05-02T07:10:15.199Z,7.70
2023-05-02T07:15:22.105Z,6.20
2023-05-02T07:20:28.947Z,6.10
2023-05-02T07:25:36.854Z,6.40
2023-05-02T07:30:43.725Z,6.60
2023-05-02T07:35:50.775Z,5.90
2023-05-02T07:41:02.084Z,6.20
2023-05-02T07:46:09.296Z,6.40
2023-05-02T07:51:16.162Z,6.30
2023-05-02T07:56:23.055Z,6.20
2023-05-02T08:01:30.189Z,6.10
2023-05-02T08:06:37.279Z,6.20
2023-05-02T08:11:44.330Z,6.00
2023-05-02T08:16:51.675Z,5.90
2023-05-02T08:22:00.313Z,6.40
2023-05-02T08:27:07.889Z,6.10
2023-05-02T08:32:14.727Z,6.10
2023-05-02T08:37:21.681Z,6.80
2023-05-02T08:42:30.095Z,5.90
2023-05-02T08:47:38.132Z,5.40
2023-05-02T08:52:45.652Z,6.00
2023-05-02T08:57:52.629Z,5.30
2023-05-02T09:03:08.195Z,5.50
2023-05-02T09:08:22.793Z,6.10
2023-05-02T09:13:36.439Z,6.80
2023-05-02T09:18:45.756Z,5.80
2023-05-02T09:23:54.317Z,6.00
2023-05-02T09:29:02.450Z,6.70
2023-05-02T09:34:13.354Z,5.30
2023-05-02T09:39:23.783Z,8.50
2023-05-02T09:44:40.649Z,5.90
2023-05-02T09:49:49.842Z,6.70
2023-05-02T09:54:57.029Z,6.70
2023-05-02T10:00:03.922Z,6.20
2023-05-02T10:05:21.108Z,6.60
2023-05-02T10:10:28.708Z,6.10
2023-05-02T10:15:38.220Z,5.60
2023-05-02T10:20:52.707Z,7.00
2023-05-02T10:26:00.811Z,6.10
2023-05-02T10:31:10.785Z,5.70
2023-05-02T10:36:21.326Z,6.50
2023-05-02T10:41:31.849Z,5.30
2023-05-02T10:46:40.823Z,5.90
2023-05-02T10:51:47.803Z,4.00
2023-05-02T10:57:09.302Z,5.10
2023-05-02T11:02:52.250Z,5.00
2023-05-02T11:08:29.749Z,5.20
2023-05-02T11:13:52.562Z,5.50
2023-05-02T11:19:03.080Z,6.50
2023-05-02T11:24:40.009Z,5.90
2023-05-02T11:29:56.200Z,6.40
2023-05-02T11:35:04.625Z,6.60
2023-05-02T11:40:16.073Z,7.40
2023-05-02T11:45:24.075Z,6.50
2023-05-02T11:50:31.314Z,5.80
2023-05-02T11:55:38.851Z,6.20
2023-05-02T12:00:49.897Z,6.40
2023-05-02T12:05:56.858Z,6.90
2023-05-02T12:11:03.958Z,6.10
2023-05-02T12:16:11.455Z,6.10
2023-05-02T12:21:19.014Z,5.70
2023-05-02T12:26:29.609Z,6.20
2023-05-02T12:31:36.722Z,6.40
2023-05-02T12:36:47.809Z,6.30
2023-05-02T12:41:54.638Z,4.70
2023-05-02T12:47:01.997Z,5.40
2023-05-02T12:52:09.135Z,7.10
2023-05-02T12:57:27.233Z,5.90
2023-05-02T13:02:34.143Z,5.80
2023-05-02T13:07:41.154Z,6.50
2023-05-02T13:12:48.769Z,6.40
2023-05-02T13:17:55.775Z,6.40
2023-05-02T13:23:02.876Z,8.10
2023-05-02T13:28:09.952Z,6.60
2023-05-02T13:33:16.942Z,5.70
2023-05-02T13:38:24.187Z,6.20
2023-05-02T13:43:33.676Z,5.10
2023-05-02T13:48:40.838Z,5.40
2023-05-02T13:53:47.817Z,4.40
2023-05-02T13:58:54.927Z,4.10
2023-05-02T14:04:07.017Z,3.30
2023-05-02T14:09:15.500Z,2.70
2023-05-02T14:14:22.434Z,2.60
2023-05-02T14:19:29.645Z,2.30
2023-05-02T14:24:36.551Z,2.70
2023-05-02T14:29:43.898Z,2.40
2023-05-02T14:34:51.067Z,2.90
2023-05-02T14:39:59.517Z,2.70
2023-05-02T14:45:08.494Z,3.50
2023-05-02T14:50:15.481Z,3.30
2023-05-02T14:55:22.660Z,3.70
2023-05-02T15:00:30.128Z,9.90
2023-05-02T15:05:37.453Z,4.00
2023-05-02T15:10:44.522Z,3.80
2023-05-02T15:15:51.464Z,4.10
2023-05-02T15:20:58.616Z,4.70
2023-05-02T15:26:05.777Z,3.50
2023-05-02T15:31:13.163Z,3.60
2023-05-02T15:36:20.361Z,3.20
2023-05-02T15:41:27.856Z,3.30
2023-05-02T15:46:34.850Z,3.10
2023-05-02T15:51:42.756Z,4.00
2023-05-02T15:56:49.757Z,2.90
2023-05-02T16:01:56.902Z,3.50
2023-05-02T16:07:04.011Z,3.80
2023-05-02T16:12:11.284Z,4.00
2023-05-02T16:17:18.585Z,4.00
2023-05-02T16:22:26.113Z,3.70
2023-05-02T16:27:34.312Z,4.60
2023-05-02T16:32:41.330Z,5.00
2023-05-02T16:37:51.569Z,3.90
2023-05-02T16:42:59.188Z,4.40
2023-05-02T16:48:07.003Z,4.70
2023-05-02T16:53:13.954Z,5.70
2023-05-02T16:58:20.900Z,5.80
2023-05-02T17:03:29.021Z,5.70
2023-05-02T17:08:36.821Z,7.10
2023-05-02T17:13:44.085Z,6.00
2023-05-02T17:18:51.028Z,6.90
2023-05-02T17:23:58.072Z,7.00
2023-05-02T17:29:05.132Z,7.30
2023-05-02T17:39:19.498Z,7.10
2023-05-02T17:44:26.556Z,8.00
2023-05-02T17:49:34.159Z,7.10
2023-05-02T17:54:41.349Z,7.50
2023-05-02T17:59:48.388Z,7.20
2023-05-02T18:04:56.017Z,7.40
2023-05-02T18:10:05.507Z,7.20
2023-05-02T18:15:14.453Z,7.00
2023-05-02T18:20:22.319Z,8.20
2023-05-02T18:25:29.305Z,8.40
2023-05-02T18:30:38.660Z,8.80
2023-05-02T18:35:49.171Z,8.20
2023-05-02T18:40:56.180Z,8.30
2023-05-02T18:46:03.635Z,8.20
2023-05-02T18:51:10.862Z,9.10
2023-05-02T18:56:18.055Z,8.80
2023-05-02T19:01:26.197Z,8.00
2023-05-02T19:06:33.349Z,7.00
2023-05-02T19:11:40.857Z,8.60
2023-05-02T19:16:48.356Z,8.70
2023-05-02T19:21:55.617Z,10.30
2023-05-02T19:27:04.785Z,9.70
2023-05-02T19:32:12.700Z,7.20
2023-05-02T19:37:21.124Z,7.30
2023-05-02T19:42:28.632Z,6.90
2023-05-02T19:47:35.666Z,7.90
2023-05-02T19:52:44.757Z,6.80
2023-05-02T19:57:52.652Z,7.10
2023-05-02T20:03:00.881Z,7.10
2023-05-02T20:08:09.049Z,6.50
2023-05-02T20:13:17.086Z,7.10
2023-05-02T20:18:25.931Z,7.90
2023-05-02T20:23:33.906Z,6.40
2023-05-02T20:28:42.261Z,6.50
2023-05-02T20:33:49.607Z,6.00
2023-05-02T20:38:57.949Z,6.20
2023-05-02T20:44:05.174Z,6.60
2023-05-02T20:49:12.085Z,6.70
2023-05-02T20:54:19.169Z,6.60
2023-05-02T20:59:26.190Z,7.80
2023-05-02T21:04:33.239Z,5.90
2023-05-02T21:09:40.098Z,6.90
2023-05-02T21:14:47.366Z,5.90
2023-05-02T21:19:56.983Z,6.30
2023-05-02T21:25:03.861Z,6.40
2023-05-02T21:30:12.537Z,5.70
2023-05-02T21:35:19.557Z,6.00
2023-05-02T21:40:28.765Z,6.10
2023-05-02T21:45:35.666Z,6.40
2023-05-02T21:50:43.496Z,6.40
2023-05-02T21:55:50.647Z,6.50
2023-05-02T22:00:59.535Z,6.70
2023-05-02T22:06:07.261Z,5.80
2023-05-02T22:11:15.522Z,6.40
2023-05-02T22:16:22.692Z,6.60
2023-05-02T22:21:30.127Z,6.50
2023-05-02T22:26:37.142Z,6.60
2023-05-02T22:31:44.166Z,6.60
2023-05-02T22:36:51.189Z,6.40
2023-05-02T22:41:59.637Z,6.60
2023-05-02T22:47:08.660Z,6.50
2023-05-02T22:52:18.509Z,7.30
2023-05-02T22:57:25.988Z,7.70
2023-05-02T23:02:33.050Z,8.90
2023-05-02T23:07:40.752Z,10.10
2023-05-02T23:12:47.930Z,7.60
2023-05-02T23:17:54.907Z,9.10
2023-05-02T23:23:01.818Z,8.10
2023-05-02T23:28:09.060Z,7.60
2023-05-02T23:33:16.587Z,7.40
2023-05-02T23:38:25.178Z,7.90
2023-05-02T23:43:32.600Z,9.60
2023-05-02T23:48:39.516Z,7.70
2023-05-02T23:53:46.670Z,7.30
2023-05-02T23:58:53.538Z,7.20
